Time;durP1;ratioP1;P1;durP2;ratioP2;P2;SDS_P1;SDS_P2;PMS_P1;PMS_P2;Temp;Humidity;BMP_temperature;BMP_pressure;BME280_temperature;BME280_humidity;BME280_pressure;Samples;Min_cycle;Max_cycle;Signal;HPM_P1;HPM_P2
2023/12/15 00:02:03;;;;;;;;;;;17.80;53.90;;;;;;7397369;19;1528;-61
2023/12/15 00:04:28;;;;;;;;;;;17.80;53.90;;;;;;7392508;19;2992;-61
2023/12/15 00:06:54;;;;;;;;;;;17.80;53.90;;;;;;7396621;19;3322;-61
2023/12/15 00:09:19;;;;;;;;;;;17.80;54.70;;;;;;7395283;19;1519;-61
2023/12/15 00:11:45;;;;;;;;;;;17.70;53.80;;;;;;7392795;19;2999;-61
2023/12/15 00:14:10;;;;;;;;;;;17.70;53.90;;;;;;7395869;19;3370;-61
2023/12/15 00:16:35;;;;;;;;;;;17.70;53.90;;;;;;7394761;19;1419;-61
2023/12/15 00:19:01;;;;;;;;;;;17.70;53.90;;;;;;7391371;19;3578;-61
2023/12/15 00:21:26;;;;;;;;;;;17.70;54.00;;;;;;7396213;19;3425;-61
2023/12/15 00:23:52;;;;;;;;;;;17.70;54.10;;;;;;7392508;19;3339;-61
2023/12/15 00:26:17;;;;;;;;;;;17.70;53.90;;;;;;7389722;19;3021;-61
2023/12/15 00:28:43;;;;;;;;;;;17.70;53.90;;;;;;7398790;19;3380;-61
2023/12/15 00:31:08;;;;;;;;;;;17.70;54.00;;;;;;7401799;19;1518;-61
2023/12/15 00:33:34;;;;;;;;;;;17.70;54.00;;;;;;7398226;19;3019;-61
2023/12/15 00:36:00;;;;;;;;;;;17.60;54.00;;;;;;7404774;19;3236;-61
2023/12/15 00:38:25;;;;;;;;;;;17.60;53.90;;;;;;7399387;19;1536;-61
2023/12/15 00:40:51;;;;;;;;;;;17.60;54.10;;;;;;7401522;19;2936;-61
2023/12/15 00:43:16;;;;;;;;;;;17.60;54.00;;;;;;7403970;19;2781;-61
2023/12/15 00:45:42;;;;;;;;;;;17.60;54.10;;;;;;7401572;19;1294;-61
2023/12/15 00:48:07;;;;;;;;;;;17.50;54.10;;;;;;7398779;19;3133;-61
2023/12/15 00:50:33;;;;;;;;;;;17.50;54.10;;;;;;7402824;19;3358;-61
2023/12/15 00:52:58;;;;;;;;;;;17.50;54.30;;;;;;7396966;19;1862;-61
2023/12/15 00:55:23;;;;;;;;;;;17.50;54.20;;;;;;7397478;19;3034;-61
2023/12/15 00:57:49;;;;;;;;;;;17.50;54.30;;;;;;7403929;19;1656;-61
2023/12/15 01:00:14;;;;;;;;;;;17.50;54.30;;;;;;7399024;19;1547;-61
2023/12/15 01:02:40;;;;;;;;;;;17.50;54.30;;;;;;7401755;19;3011;-61
2023/12/15 01:05:05;;;;;;;;;;;17.40;54.00;;;;;;7402925;19;3528;-61
2023/12/15 01:07:31;;;;;;;;;;;17.40;54.10;;;;;;7401602;19;1349;-61
2023/12/15 01:09:56;;;;;;;;;;;17.40;54.10;;;;;;7399189;19;2993;-61
2023/12/15 01:12:22;;;;;;;;;;;17.40;54.30;;;;;;7402568;19;3434;-61
2023/12/15 01:14:47;;;;;;;;;;;17.40;54.20;;;;;;7400077;19;1602;-61
2023/12/15 01:17:13;;;;;;;;;;;17.40;54.20;;;;;;7400370;19;3049;-61
2023/12/15 01:19:38;;;;;;;;;;;17.40;54.30;;;;;;7402252;19;1489;-61
2023/12/15 01:22:03;;;;;;;;;;;17.40;54.40;;;;;;7399000;19;1139;-61
2023/12/15 01:24:29;;;;;;;;;;;17.40;54.20;;;;;;7390249;19;3219;-62
2023/12/15 01:26:54;;;;;;;;;;;17.30;54.40;;;;;;7397852;19;2945;-61
2023/12/15 01:29:20;;;;;;;;;;;17.30;54.40;;;;;;7401199;19;3321;-61
2023/12/15 01:31:45;;;;;;;;;;;17.30;54.50;;;;;;7399560;19;3153;-61
2023/12/15 01:34:10;;;;;;;;;;;17.30;54.40;;;;;;7400007;19;1814;-61
2023/12/15 01:36:37;;;;;;;;;;;17.30;54.40;;;;;;7399211;19;1561;-61
2023/12/15 01:39:02;;;;;;;;;;;17.30;54.40;;;;;;7399859;19;2964;-62
2023/12/15 01:41:28;;;;;;;;;;;17.20;54.40;;;;;;7397157;19;2946;-61
2023/12/15 01:43:53;;;;;;;;;;;17.20;54.40;;;;;;7401702;19;1476;-61
2023/12/15 01:46:18;;;;;;;;;;;17.20;54.40;;;;;;7397344;19;4167;-61
2023/12/15 01:48:44;;;;;;;;;;;17.20;54.40;;;;;;7400034;19;1526;-61
2023/12/15 01:51:09;;;;;;;;;;;17.20;54.40;;;;;;7395312;19;2938;-61
2023/12/15 01:53:35;;;;;;;;;;;17.10;54.40;;;;;;7395224;19;3216;-61
2023/12/15 01:56:00;;;;;;;;;;;17.20;54.50;;;;;;7397655;19;1644;-61
2023/12/15 01:58:25;;;;;;;;;;;17.20;55.20;;;;;;7387725;19;3191;-62
2023/12/15 02:00:51;;;;;;;;;;;17.20;54.50;;;;;;7395693;19;2934;-62
2023/12/15 02:03:16;;;;;;;;;;;17.20;54.50;;;;;;7398335;19;1483;-61
2023/12/15 02:05:42;;;;;;;;;;;17.10;54.30;;;;;;7398751;19;1521;-61
2023/12/15 02:08:07;;;;;;;;;;;17.10;54.40;;;;;;7396592;19;3393;-61
2023/12/15 02:10:36;;;;;;;;;;;17.10;54.50;;;;;;7395216;19;2508;-61
2023/12/15 02:13:02;;;;;;;;;;;17.10;54.30;;;;;;7389422;19;2533;-61
2023/12/15 02:15:27;;;;;;;;;;;17.20;54.30;;;;;;7388910;19;3089;-62
2023/12/15 02:17:52;;;;;;;;;;;17.20;54.10;;;;;;7395075;19;2502;-61
2023/12/15 02:20:18;;;;;;;;;;;17.20;53.90;;;;;;7394358;19;1491;-61
2023/12/15 02:22:43;;;;;;;;;;;17.30;54.40;;;;;;7392472;19;3164;-61
2023/12/15 02:25:09;;;;;;;;;;;17.40;53.40;;;;;;7391599;19;1522;-61
2023/12/15 02:27:34;;;;;;;;;;;17.60;53.00;;;;;;7391806;19;2878;-61
2023/12/15 02:30:00;;;;;;;;;;;17.80;52.80;;;;;;7390797;19;3161;-61
2023/12/15 02:32:25;;;;;;;;;;;18.00;52.60;;;;;;7398094;19;1842;-61
2023/12/15 02:34:51;;;;;;;;;;;18.20;52.20;;;;;;7396415;19;1618;-61
2023/12/15 02:37:16;;;;;;;;;;;18.40;51.90;;;;;;7396505;19;3077;-61
2023/12/15 02:39:42;;;;;;;;;;;18.50;51.70;;;;;;7396665;19;1490;-61
2023/12/15 02:42:07;;;;;;;;;;;18.50;51.40;;;;;;7394613;19;1659;-61
2023/12/15 02:44:33;;;;;;;;;;;18.60;51.30;;;;;;7396563;19;3162;-61
2023/12/15 02:46:58;;;;;;;;;;;18.60;51.40;;;;;;7396542;19;1445;-61
2023/12/15 02:49:23;;;;;;;;;;;18.60;51.20;;;;;;7398342;19;1608;-61
2023/12/15 02:51:49;;;;;;;;;;;18.60;51.00;;;;;;7395408;19;3296;-61
2023/12/15 02:54:14;;;;;;;;;;;18.60;51.00;;;;;;7397558;19;1599;-61
2023/12/15 02:56:40;;;;;;;;;;;18.50;51.00;;;;;;7398186;19;1564;-61
2023/12/15 02:59:05;;;;;;;;;;;18.60;50.90;;;;;;7395119;19;3602;-61
2023/12/15 03:01:30;;;;;;;;;;;18.60;50.90;;;;;;7393848;19;1644;-61
2023/12/15 03:03:56;;;;;;;;;;;18.60;51.00;;;;;;7398056;19;1471;-61
2023/12/15 03:06:22;;;;;;;;;;;18.60;51.00;;;;;;7395787;19;2988;-61
2023/12/15 03:08:47;;;;;;;;;;;18.60;51.00;;;;;;7399609;19;1499;-61
2023/12/15 03:11:13;;;;;;;;;;;18.60;51.00;;;;;;7394344;19;1602;-61
2023/12/15 03:13:38;;;;;;;;;;;18.50;51.10;;;;;;7392304;19;3791;-61
2023/12/15 03:16:06;;;;;;;;;;;18.50;51.10;;;;;;7398289;19;1354;-61
2023/12/15 03:18:32;;;;;;;;;;;18.40;51.20;;;;;;7395906;19;1539;-61
2023/12/15 03:20:57;;;;;;;;;;;18.40;51.30;;;;;;7396537;19;3028;-61
2023/12/15 03:23:22;;;;;;;;;;;18.40;51.30;;;;;;7393516;19;1018;-61
2023/12/15 03:25:48;;;;;;;;;;;18.30;51.30;;;;;;7394663;19;1592;-61
2023/12/15 03:28:14;;;;;;;;;;;18.30;51.60;;;;;;7393273;19;3019;-61
2023/12/15 03:30:40;;;;;;;;;;;18.20;51.70;;;;;;7397563;19;3310;-61
2023/12/15 03:33:05;;;;;;;;;;;18.20;51.80;;;;;;7394009;19;1843;-61
2023/12/15 03:35:31;;;;;;;;;;;18.10;51.60;;;;;;7391420;19;3610;-61
2023/12/15 03:37:56;;;;;;;;;;;18.10;52.50;;;;;;7397468;19;1402;-61
2023/12/15 03:40:21;;;;;;;;;;;18.00;51.90;;;;;;7394042;19;1594;-61
2023/12/15 03:42:47;;;;;;;;;;;18.00;51.90;;;;;;7396241;19;3005;-61
2023/12/15 03:45:12;;;;;;;;;;;18.00;52.10;;;;;;7392178;19;2210;-61
2023/12/15 03:47:38;;;;;;;;;;;18.00;52.20;;;;;;7395734;19;2249;-62
2023/12/15 03:50:03;;;;;;;;;;;17.90;52.00;;;;;;7394924;19;3407;-61
2023/12/15 03:52:30;;;;;;;;;;;17.90;52.70;;;;;;7397029;19;1850;-61
2023/12/15 03:54:56;;;;;;;;;;;17.90;52.20;;;;;;7393587;19;1658;-61
2023/12/15 03:57:21;;;;;;;;;;;17.90;52.10;;;;;;7394867;19;2986;-63
2023/12/15 03:59:47;;;;;;;;;;;17.90;52.30;;;;;;7393328;19;3235;-61
2023/12/15 04:02:14;;;;;;;;;;;17.90;52.00;;;;;;7395999;19;1546;-62
2023/12/15 04:04:40;;;;;;;;;;;17.90;52.00;;;;;;7407560;19;3052;-61
2023/12/15 04:07:05;;;;;;;;;;;17.90;51.90;;;;;;7408244;19;880;-61
2023/12/15 04:09:31;;;;;;;;;;;18.00;52.00;;;;;;7407968;19;1632;-61
2023/12/15 04:11:56;;;;;;;;;;;18.00;51.90;;;;;;7408856;19;4020;-61
2023/12/15 04:14:22;;;;;;;;;;;18.00;51.70;;;;;;7411755;19;1579;-61
2023/12/15 04:16:47;;;;;;;;;;;18.00;51.70;;;;;;7407833;19;2968;-61
2023/12/15 04:19:12;;;;;;;;;;;18.00;51.70;;;;;;7410784;19;3496;-61
2023/12/15 04:21:38;;;;;;;;;;;18.00;51.70;;;;;;7407898;19;804;-61
2023/12/15 04:24:03;;;;;;;;;;;18.00;51.60;;;;;;7408628;19;1656;-61
2023/12/15 04:26:29;;;;;;;;;;;18.10;51.60;;;;;;7404762;19;3611;-61
2023/12/15 04:28:54;;;;;;;;;;;18.00;51.60;;;;;;7404662;19;3021;-61
2023/12/15 04:31:20;;;;;;;;;;;18.00;51.70;;;;;;7409095;19;3418;-62
2023/12/15 04:33:45;;;;;;;;;;;18.00;51.70;;;;;;7407918;19;3116;-60
2023/12/15 04:36:11;;;;;;;;;;;18.00;51.90;;;;;;7408248;19;1418;-61
2023/12/15 04:38:36;;;;;;;;;;;18.00;51.80;;;;;;7408494;19;1679;-60
2023/12/15 04:41:02;;;;;;;;;;;18.00;51.80;;;;;;7407048;19;3932;-61
2023/12/15 04:43:27;;;;;;;;;;;18.00;51.70;;;;;;7406824;19;1433;-61
2023/12/15 04:45:54;;;;;;;;;;;18.00;51.70;;;;;;7405615;19;3178;-61
2023/12/15 04:48:19;;;;;;;;;;;18.00;51.90;;;;;;7411075;19;3219;-61
2023/12/15 04:50:44;;;;;;;;;;;18.00;51.70;;;;;;7406713;19;840;-61
2023/12/15 04:53:10;;;;;;;;;;;18.00;51.70;;;;;;7405911;19;3103;-61
2023/12/15 04:55:35;;;;;;;;;;;18.00;51.80;;;;;;7407731;19;3421;-61
2023/12/15 04:58:01;;;;;;;;;;;17.90;51.70;;;;;;7406552;19;1409;-61
2023/12/15 05:00:26;;;;;;;;;;;18.00;51.70;;;;;;7404869;19;3153;-61
2023/12/15 05:02:51;;;;;;;;;;;18.00;51.80;;;;;;7408932;19;3957;-63
2023/12/15 05:05:18;;;;;;;;;;;17.90;51.90;;;;;;7408606;19;1513;-61
2023/12/15 05:07:44;;;;;;;;;;;17.90;52.00;;;;;;7406098;19;2941;-61
2023/12/15 05:10:09;;;;;;;;;;;17.90;52.10;;;;;;7405673;19;3143;-61
2023/12/15 05:12:35;;;;;;;;;;;17.90;52.00;;;;;;7403453;19;3978;-61
2023/12/15 05:15:01;;;;;;;;;;;17.90;52.00;;;;;;7399529;19;3106;-61
2023/12/15 05:17:26;;;;;;;;;;;17.90;52.20;;;;;;7399607;19;3357;-61
2023/12/15 05:19:52;;;;;;;;;;;17.90;52.20;;;;;;7401848;19;2421;-61
2023/12/15 05:22:17;;;;;;;;;;;17.90;52.00;;;;;;7397151;19;4061;-61
2023/12/15 05:24:43;;;;;;;;;;;17.90;51.90;;;;;;7398951;19;3260;-61
2023/12/15 05:27:08;;;;;;;;;;;17.90;51.90;;;;;;7399146;19;875;-61
2023/12/15 05:29:34;;;;;;;;;;;18.00;51.90;;;;;;7397081;19;2999;-61
2023/12/15 05:32:00;;;;;;;;;;;18.00;51.90;;;;;;7399823;19;2314;-61
2023/12/15 05:34:25;;;;;;;;;;;18.00;51.80;;;;;;7400290;19;1681;-61
2023/12/15 05:36:50;;;;;;;;;;;18.10;51.80;;;;;;7393897;19;3745;-62
2023/12/15 05:39:16;;;;;;;;;;;18.10;51.80;;;;;;7400016;19;2879;-61
2023/12/15 05:41:42;;;;;;;;;;;18.00;51.70;;;;;;7399068;19;2564;-63
2023/12/15 05:44:07;;;;;;;;;;;18.00;51.90;;;;;;7395072;19;3046;-61
2023/12/15 05:46:35;;;;;;;;;;;18.00;51.90;;;;;;7401594;19;3373;-61
2023/12/15 05:49:01;;;;;;;;;;;18.00;51.80;;;;;;7399073;19;1674;-61
2023/12/15 05:51:26;;;;;;;;;;;17.90;51.80;;;;;;7399550;19;3990;-61
2023/12/15 05:53:51;;;;;;;;;;;17.90;51.90;;;;;;7400268;19;3345;-61
2023/12/15 05:56:17;;;;;;;;;;;18.00;52.00;;;;;;7399372;19;1452;-61
2023/12/15 05:58:43;;;;;;;;;;;17.90;51.80;;;;;;7396230;19;3602;-63
2023/12/15 06:01:09;;;;;;;;;;;17.90;51.90;;;;;;7399608;19;1449;-61
2023/12/15 06:03:34;;;;;;;;;;;17.80;52.00;;;;;;7401323;19;1412;-62
2023/12/15 06:06:00;;;;;;;;;;;17.80;52.10;;;;;;7398559;19;3204;-62
2023/12/15 06:08:25;;;;;;;;;;;17.80;52.20;;;;;;7396928;19;1625;-61
2023/12/15 06:10:51;;;;;;;;;;;17.80;52.20;;;;;;7396964;19;1625;-61
2023/12/15 06:13:16;;;;;;;;;;;17.80;52.10;;;;;;7395110;19;3088;-61
2023/12/15 06:15:41;;;;;;;;;;;17.90;52.00;;;;;;7396765;19;1082;-61
2023/12/15 06:18:07;;;;;;;;;;;17.90;52.10;;;;;;7396240;19;3667;-61
2023/12/15 06:20:32;;;;;;;;;;;17.90;52.00;;;;;;7397633;19;3103;-62
2023/12/15 06:22:58;;;;;;;;;;;17.90;52.00;;;;;;7401056;19;1441;-61
2023/12/15 06:25:24;;;;;;;;;;;17.90;51.90;;;;;;7399378;19;1698;-61
2023/12/15 06:27:49;;;;;;;;;;;18.00;51.90;;;;;;7393756;19;3041;-61
2023/12/15 06:30:14;;;;;;;;;;;18.00;51.60;;;;;;7393204;19;3336;-61
2023/12/15 06:32:40;;;;;;;;;;;18.10;51.50;;;;;;7396821;19;3258;-62
2023/12/15 06:35:05;;;;;;;;;;;18.00;51.70;;;;;;7396678;19;2918;-61
2023/12/15 06:37:31;;;;;;;;;;;18.00;51.50;;;;;;7400534;19;1562;-61
2023/12/15 06:39:56;;;;;;;;;;;18.00;51.80;;;;;;7397552;19;1567;-61
2023/12/15 06:42:21;;;;;;;;;;;18.00;51.70;;;;;;7397210;19;3139;-61
2023/12/15 06:44:47;;;;;;;;;;;18.20;51.60;;;;;;7395998;19;875;-61
2023/12/15 06:47:13;;;;;;;;;;;18.30;51.50;;;;;;7398423;19;1604;-61
2023/12/15 06:49:38;;;;;;;;;;;18.40;51.10;;;;;;7394218;19;3622;-61
2023/12/15 06:52:05;;;;;;;;;;;18.40;50.90;;;;;;7397251;19;3126;-61
2023/12/15 06:54:30;;;;;;;;;;;18.60;50.70;;;;;;7391253;19;2886;-61
2023/12/15 06:56:56;;;;;;;;;;;18.70;50.60;;;;;;7392479;19;3264;-61
2023/12/15 06:59:21;;;;;;;;;;;18.70;50.40;;;;;;7395159;19;1440;-61
2023/12/15 07:01:46;;;;;;;;;;;18.80;50.50;;;;;;7396311;19;809;-61
2023/12/15 07:04:12;;;;;;;;;;;18.70;50.30;;;;;;7393538;19;3979;-61
2023/12/15 07:06:37;;;;;;;;;;;18.80;50.30;;;;;;7394968;19;907;-61
2023/12/15 07:09:03;;;;;;;;;;;18.80;50.20;;;;;;7396860;19;1609;-61
2023/12/15 07:11:28;;;;;;;;;;;18.90;50.20;;;;;;7393269;19;3928;-63
2023/12/15 07:13:54;;;;;;;;;;;18.90;50.00;;;;;;7393735;19;1842;-61
2023/12/15 07:16:19;;;;;;;;;;;18.90;50.10;;;;;;7394922;19;880;-61
2023/12/15 07:18:45;;;;;;;;;;;18.90;50.00;;;;;;7393219;19;3984;-61
2023/12/15 07:21:11;;;;;;;;;;;18.90;50.10;;;;;;7398699;19;1611;-61
2023/12/15 07:23:37;;;;;;;;;;;18.80;50.10;;;;;;7397518;19;1623;-61
2023/12/15 07:26:03;;;;;;;;;;;18.90;50.20;;;;;;7390305;19;3075;-61
2023/12/15 07:28:29;;;;;;;;;;;18.90;50.20;;;;;;7398210;19;3333;-61
2023/12/15 07:30:54;;;;;;;;;;;18.90;50.10;;;;;;7396680;19;2993;-61
2023/12/15 07:33:20;;;;;;;;;;;18.90;50.00;;;;;;7393311;19;4206;-61
2023/12/15 07:35:45;;;;;;;;;;;19.00;50.00;;;;;;7392163;19;3236;-61
2023/12/15 07:38:11;;;;;;;;;;;18.90;49.90;;;;;;7387210;19;3746;-61
2023/12/15 07:40:36;;;;;;;;;;;19.00;50.00;;;;;;7395458;19;3035;-61
2023/12/15 07:43:02;;;;;;;;;;;18.90;49.90;;;;;;7394739;19;3295;-61
2023/12/15 07:45:27;;;;;;;;;;;19.00;50.00;;;;;;7396374;19;1519;-61
2023/12/15 07:47:53;;;;;;;;;;;19.00;49.90;;;;;;7390220;19;3701;-61
2023/12/15 07:50:19;;;;;;;;;;;19.00;50.00;;;;;;7398415;19;867;-61
2023/12/15 07:52:44;;;;;;;;;;;19.00;49.70;;;;;;7393856;19;3599;-61
2023/12/15 07:55:10;;;;;;;;;;;19.00;49.80;;;;;;7393964;19;4712;-61
2023/12/15 07:57:35;;;;;;;;;;;19.00;49.70;;;;;;7394763;19;824;-61
2023/12/15 08:00:01;;;;;;;;;;;19.00;49.80;;;;;;7392331;19;1349;-61
2023/12/15 08:02:26;;;;;;;;;;;19.10;49.80;;;;;;7393437;19;3277;-62
2023/12/15 08:04:52;;;;;;;;;;;19.00;49.60;;;;;;7392663;19;4252;-61
2023/12/15 08:07:17;;;;;;;;;;;19.10;49.80;;;;;;7394499;19;1895;-62
2023/12/15 08:09:42;;;;;;;;;;;19.10;49.80;;;;;;7392486;19;3131;-61
2023/12/15 08:12:08;;;;;;;;;;;19.10;49.80;;;;;;7397924;19;1862;-61
2023/12/15 08:14:33;;;;;;;;;;;19.00;49.80;;;;;;7393608;19;1038;-61
2023/12/15 08:16:59;;;;;;;;;;;19.00;49.70;;;;;;7393202;19;4186;-62
2023/12/15 08:19:24;;;;;;;;;;;19.10;49.80;;;;;;7390823;19;2998;-61
2023/12/15 08:21:51;;;;;;;;;;;19.00;49.80;;;;;;7386828;19;3228;-61
2023/12/15 08:24:16;;;;;;;;;;;18.90;50.00;;;;;;7385937;19;3243;-62
2023/12/15 08:26:42;;;;;;;;;;;18.90;50.20;;;;;;7393427;19;1563;-61
2023/12/15 08:29:07;;;;;;;;;;;18.90;50.20;;;;;;7383954;19;2935;-61
2023/12/15 08:31:33;;;;;;;;;;;18.90;50.10;;;;;;7387680;19;3643;-61
2023/12/15 08:33:58;;;;;;;;;;;19.00;50.10;;;;;;7390246;19;1872;-61
2023/12/15 08:36:24;;;;;;;;;;;18.90;50.20;;;;;;7390460;19;887;-63
2023/12/15 08:38:49;;;;;;;;;;;18.90;50.20;;;;;;7390446;19;3222;-62
2023/12/15 08:41:15;;;;;;;;;;;19.00;50.10;;;;;;7395062;19;1651;-61
2023/12/15 08:43:40;;;;;;;;;;;18.90;50.40;;;;;;7393927;19;1785;-61
2023/12/15 08:46:06;;;;;;;;;;;18.70;50.60;;;;;;7391302;19;4251;-61
2023/12/15 08:48:31;;;;;;;;;;;18.80;50.70;;;;;;7397256;19;3575;-61
2023/12/15 08:50:56;;;;;;;;;;;18.80;50.50;;;;;;7392870;19;3831;-62
2023/12/15 08:53:22;;;;;;;;;;;18.80;50.70;;;;;;7397002;19;5071;-62
2023/12/15 08:55:47;;;;;;;;;;;18.80;50.60;;;;;;7399759;19;3116;-63
2023/12/15 08:58:13;;;;;;;;;;;18.80;50.50;;;;;;7400019;19;1279;-61
2023/12/15 09:00:39;;;;;;;;;;;18.80;50.60;;;;;;7395640;19;3172;-61
2023/12/15 09:03:04;;;;;;;;;;;18.90;50.50;;;;;;7399699;19;1843;-61
2023/12/15 09:05:31;;;;;;;;;;;19.00;50.40;;;;;;7398601;19;3715;-61
2023/12/15 09:07:56;;;;;;;;;;;18.90;50.50;;;;;;7403855;19;2813;-61
2023/12/15 09:10:22;;;;;;;;;;;19.00;50.50;;;;;;7398108;19;1533;-62
2023/12/15 09:12:48;;;;;;;;;;;19.00;50.30;;;;;;7392113;19;3096;-62
2023/12/15 09:15:13;;;;;;;;;;;19.10;50.30;;;;;;7399495;19;3202;-62
2023/12/15 09:17:40;;;;;;;;;;;19.10;50.40;;;;;;7400966;19;2972;-61
2023/12/15 09:20:06;;;;;;;;;;;19.00;50.50;;;;;;7396583;19;3712;-61
2023/12/15 09:22:32;;;;;;;;;;;18.90;50.80;;;;;;7388823;19;4830;-61
2023/12/15 09:24:57;;;;;;;;;;;18.80;51.10;;;;;;7394242;19;3753;-61
2023/12/15 09:27:23;;;;;;;;;;;18.80;51.30;;;;;;7399044;19;4166;-61
2023/12/15 09:29:48;;;;;;;;;;;18.80;51.50;;;;;;7395201;19;3353;-60
2023/12/15 09:32:13;;;;;;;;;;;18.80;51.70;;;;;;7401036;19;3062;-62
2023/12/15 09:34:39;;;;;;;;;;;18.90;51.70;;;;;;7396714;19;2791;-62
2023/12/15 09:37:04;;;;;;;;;;;18.90;51.90;;;;;;7396103;19;4835;-61
2023/12/15 09:39:30;;;;;;;;;;;19.00;51.90;;;;;;7395325;19;3306;-60
2023/12/15 09:41:55;;;;;;;;;;;19.00;52.00;;;;;;7397635;19;4722;-61
2023/12/15 09:44:21;;;;;;;;;;;19.00;52.10;;;;;;7392538;19;4769;-60
2023/12/15 09:46:46;;;;;;;;;;;19.00;52.10;;;;;;7399953;19;3499;-61
2023/12/15 09:49:13;;;;;;;;;;;19.10;52.20;;;;;;7398723;19;3530;-62
2023/12/15 09:51:39;;;;;;;;;;;19.10;52.20;;;;;;7399679;19;3978;-62
2023/12/15 09:54:04;;;;;;;;;;;19.10;52.40;;;;;;7392351;19;5130;-62
2023/12/15 09:56:29;;;;;;;;;;;19.10;52.40;;;;;;7400592;19;1584;-62
2023/12/15 09:58:55;;;;;;;;;;;19.10;52.40;;;;;;7396760;19;3503;-61
2023/12/15 10:01:20;;;;;;;;;;;19.20;52.30;;;;;;7390327;19;4800;-61
2023/12/15 10:03:46;;;;;;;;;;;19.20;52.30;;;;;;7399279;19;3022;-60
2023/12/15 10:06:11;;;;;;;;;;;19.20;52.30;;;;;;7395720;19;4854;-60
2023/12/15 10:08:41;;;;;;;;;;;19.20;52.30;;;;;;7399744;19;2865;-60
2023/12/15 10:11:07;;;;;;;;;;;19.20;52.20;;;;;;7396907;19;1622;-60
2023/12/15 10:13:32;;;;;;;;;;;19.20;52.20;;;;;;7399308;19;3497;-60
2023/12/15 10:15:58;;;;;;;;;;;19.20;52.10;;;;;;7395393;19;4827;-60
2023/12/15 10:18:23;;;;;;;;;;;19.20;52.10;;;;;;7399052;19;4863;-60
2023/12/15 10:20:49;;;;;;;;;;;19.30;52.10;;;;;;7395259;19;3318;-61
2023/12/15 10:23:14;;;;;;;;;;;19.30;52.10;;;;;;7401346;19;1682;-60
2023/12/15 10:25:44;;;;;;;;;;;19.30;52.10;;;;;;7397494;19;2962;-60
2023/12/15 10:28:10;;;;;;;;;;;19.30;52.10;;;;;;7400844;19;1299;-60
2023/12/15 10:30:35;;;;;;;;;;;19.30;52.20;;;;;;7398279;19;1477;-61
2023/12/15 10:33:00;;;;;;;;;;;19.30;52.20;;;;;;7396928;19;4846;-60
2023/12/15 10:35:26;;;;;;;;;;;19.30;52.30;;;;;;7399295;19;1588;-60
2023/12/15 10:37:52;;;;;;;;;;;19.30;52.30;;;;;;7399563;19;1771;-61
2023/12/15 10:40:17;;;;;;;;;;;19.30;52.40;;;;;;7394053;19;3763;-62
2023/12/15 10:42:43;;;;;;;;;;;19.20;52.20;;;;;;7398123;19;875;-60
2023/12/15 10:45:08;;;;;;;;;;;19.30;52.30;;;;;;7397142;19;1616;-60
2023/12/15 10:47:34;;;;;;;;;;;19.30;52.20;;;;;;7396118;19;3185;-61
2023/12/15 10:50:00;;;;;;;;;;;19.30;52.10;;;;;;7396896;19;1995;-61
2023/12/15 10:52:26;;;;;;;;;;;19.30;52.10;;;;;;7399380;19;1849;-61
2023/12/15 10:54:51;;;;;;;;;;;19.30;52.10;;;;;;7393393;19;3029;-61
2023/12/15 10:57:17;;;;;;;;;;;19.30;52.00;;;;;;7396895;19;3236;-61
2023/12/15 10:59:42;;;;;;;;;;;19.30;52.00;;;;;;7394694;19;4504;-61
2023/12/15 11:02:08;;;;;;;;;;;19.30;52.00;;;;;;7394670;19;2836;-61
2023/12/15 11:04:34;;;;;;;;;;;19.30;52.00;;;;;;7397583;19;1602;-61
2023/12/15 11:06:59;;;;;;;;;;;19.40;52.10;;;;;;7397291;19;3013;-62
2023/12/15 11:09:32;;;;;;;;;;;19.30;52.00;;;;;;7391303;19;3179;-61
2023/12/15 11:12:34;;;;;;;;;;;19.40;52.00;;;;;;7394894;19;3039;-61
2023/12/15 11:15:00;;;;;;;;;;;19.40;52.00;;;;;;7385505;19;5519;-61
2023/12/15 11:17:29;;;;;;;;;;;19.40;52.00;;;;;;7395365;19;1859;-62
2023/12/15 11:20:06;;;;;;;;;;;19.40;52.00;;;;;;7395344;19;2677;-61
2023/12/15 11:23:01;;;;;;;;;;;19.40;52.00;;;;;;7395080;19;4393;-64
2023/12/15 11:25:27;;;;;;;;;;;19.40;52.00;;;;;;7394464;19;3448;-62
2023/12/15 11:27:59;;;;;;;;;;;19.40;52.00;;;;;;7396058;19;2946;-62
2023/12/15 11:30:31;;;;;;;;;;;19.40;51.90;;;;;;7392940;19;3472;-62
2023/12/15 11:32:56;;;;;;;;;;;19.40;52.00;;;;;;7393033;19;3381;-62
2023/12/15 11:35:30;;;;;;;;;;;19.40;52.00;;;;;;7394997;19;3003;-62
2023/12/15 11:37:57;;;;;;;;;;;19.50;52.20;;;;;;7393850;19;3040;-62
2023/12/15 11:40:23;;;;;;;;;;;19.50;52.10;;;;;;7393612;19;3149;-62
2023/12/15 11:42:50;;;;;;;;;;;19.50;52.10;;;;;;7386807;19;4886;-59
2023/12/15 11:45:15;;;;;;;;;;;19.50;52.10;;;;;;7396608;19;1789;-62
2023/12/15 11:47:41;;;;;;;;;;;19.50;52.10;;;;;;7391019;19;5896;-61
2023/12/15 11:50:07;;;;;;;;;;;19.50;52.20;;;;;;7392994;19;3875;-62
2023/12/15 11:52:33;;;;;;;;;;;19.50;52.20;;;;;;7390287;19;3923;-62
2023/12/15 11:54:59;;;;;;;;;;;19.50;52.30;;;;;;7387241;19;5009;-61
2023/12/15 11:57:25;;;;;;;;;;;19.50;52.40;;;;;;7393663;19;6245;-61
2023/12/15 11:59:51;;;;;;;;;;;19.50;52.40;;;;;;7394044;19;2977;-61
2023/12/15 12:02:17;;;;;;;;;;;19.50;52.50;;;;;;7395718;19;1634;-62
2023/12/15 12:04:53;;;;;;;;;;;19.50;52.50;;;;;;7394778;19;3016;-62
2023/12/15 12:07:19;;;;;;;;;;;19.50;52.50;;;;;;7393642;19;3403;-62
2023/12/15 12:09:44;;;;;;;;;;;19.50;52.40;;;;;;7392563;19;4848;-63
2023/12/15 12:12:09;;;;;;;;;;;19.60;52.60;;;;;;7396112;19;3359;-62
2023/12/15 12:14:39;;;;;;;;;;;19.50;52.50;;;;;;7394730;19;1700;-61
2023/12/15 12:17:05;;;;;;;;;;;19.60;52.50;;;;;;7393742;19;4781;-61
2023/12/15 12:19:31;;;;;;;;;;;19.50;52.40;;;;;;7394958;19;3323;-61
2023/12/15 12:21:56;;;;;;;;;;;19.60;52.50;;;;;;7390438;19;4757;-60
2023/12/15 12:24:22;;;;;;;;;;;19.60;52.40;;;;;;7395261;19;4593;-63
2023/12/15 12:26:49;;;;;;;;;;;19.60;52.40;;;;;;7399145;19;1570;-62
2023/12/15 12:29:15;;;;;;;;;;;19.60;52.50;;;;;;7401053;19;3357;-61
2023/12/15 12:31:40;;;;;;;;;;;19.50;52.50;;;;;;7402181;19;1686;-61
2023/12/15 12:34:06;;;;;;;;;;;19.60;52.50;;;;;;7398296;19;1904;-61
2023/12/15 12:36:31;;;;;;;;;;;19.60;52.60;;;;;;7402084;19;2887;-62
2023/12/15 12:38:57;;;;;;;;;;;19.60;52.60;;;;;;7402860;19;4668;-61
2023/12/15 12:41:23;;;;;;;;;;;19.60;52.70;;;;;;7400898;19;3486;-61
2023/12/15 12:43:48;;;;;;;;;;;19.50;52.50;;;;;;7401212;19;3024;-60
2023/12/15 12:46:13;;;;;;;;;;;19.50;52.60;;;;;;7400586;19;1840;-61
2023/12/15 12:48:39;;;;;;;;;;;19.50;52.70;;;;;;7403600;19;1919;-62
2023/12/15 12:51:04;;;;;;;;;;;19.50;52.90;;;;;;7402469;19;1439;-61
2023/12/15 12:53:30;;;;;;;;;;;19.50;53.00;;;;;;7395794;19;4541;-60
2023/12/15 12:55:55;;;;;;;;;;;19.40;53.00;;;;;;7398846;19;3294;-61
2023/12/15 12:58:21;;;;;;;;;;;19.40;53.10;;;;;;7401815;19;1635;-61
2023/12/15 13:00:51;;;;;;;;;;;19.40;53.10;;;;;;7398187;19;3481;-63
2023/12/15 13:03:18;;;;;;;;;;;19.40;53.20;;;;;;7394777;19;4638;-62
2023/12/15 13:05:43;;;;;;;;;;;19.50;53.00;;;;;;7400106;19;3670;-60
2023/12/15 13:08:09;;;;;;;;;;;19.50;53.10;;;;;;7399778;19;2900;-61
2023/12/15 13:10:35;;;;;;;;;;;19.50;53.20;;;;;;7400034;19;1593;-60
2023/12/15 13:13:02;;;;;;;;;;;19.40;53.30;;;;;;7400359;19;1850;-62
2023/12/15 13:15:27;;;;;;;;;;;19.40;54.10;;;;;;7395022;19;4842;-61
2023/12/15 13:17:55;;;;;;;;;;;19.40;53.60;;;;;;7398392;19;6168;-62
2023/12/15 13:20:22;;;;;;;;;;;19.40;53.40;;;;;;7393601;19;3757;-61
2023/12/15 13:22:47;;;;;;;;;;;19.40;53.60;;;;;;7383856;19;4944;-60
2023/12/15 13:25:13;;;;;;;;;;;19.40;53.40;;;;;;7389936;19;4482;-61
2023/12/15 13:27:38;;;;;;;;;;;19.40;53.50;;;;;;7400900;19;2846;-62
2023/12/15 13:30:04;;;;;;;;;;;19.40;53.50;;;;;;7400688;19;2715;-61
2023/12/15 13:32:30;;;;;;;;;;;19.40;53.80;;;;;;7399790;19;1906;-61
2023/12/15 13:34:55;;;;;;;;;;;19.30;53.60;;;;;;7395518;19;4571;-60
2023/12/15 13:37:21;;;;;;;;;;;19.30;53.70;;;;;;7397453;19;3222;-61
2023/12/15 13:39:47;;;;;;;;;;;19.30;53.70;;;;;;7399108;19;1856;-61
2023/12/15 13:42:12;;;;;;;;;;;19.30;53.70;;;;;;7400241;19;1988;-62
2023/12/15 13:44:38;;;;;;;;;;;19.30;53.70;;;;;;7400221;19;1464;-61
2023/12/15 13:47:03;;;;;;;;;;;19.20;53.60;;;;;;7401970;19;1649;-61
2023/12/15 13:49:29;;;;;;;;;;;19.30;53.70;;;;;;7398497;19;2810;-63
2023/12/15 13:51:54;;;;;;;;;;;19.30;53.70;;;;;;7398353;19;811;-61
2023/12/15 13:54:20;;;;;;;;;;;19.30;53.70;;;;;;7396944;19;1830;-62
2023/12/15 13:56:46;;;;;;;;;;;19.20;53.50;;;;;;7394972;19;2959;-62
2023/12/15 13:59:11;;;;;;;;;;;19.20;53.50;;;;;;7393588;19;1357;-62
2023/12/15 14:01:37;;;;;;;;;;;19.20;53.60;;;;;;7396386;19;1056;-63
2023/12/15 14:04:03;;;;;;;;;;;19.20;53.80;;;;;;7395118;19;4897;-62
2023/12/15 14:06:29;;;;;;;;;;;19.20;53.70;;;;;;7397774;19;871;-63
2023/12/15 14:08:54;;;;;;;;;;;19.20;53.80;;;;;;7397768;19;998;-61
2023/12/15 14:11:20;;;;;;;;;;;19.20;53.80;;;;;;7396707;19;3291;-62
2023/12/15 14:13:45;;;;;;;;;;;19.20;53.70;;;;;;7398592;19;1842;-61
2023/12/15 14:16:11;;;;;;;;;;;19.20;53.80;;;;;;7399538;19;3675;-61
2023/12/15 14:18:37;;;;;;;;;;;19.20;53.80;;;;;;7398029;19;3303;-62
2023/12/15 14:21:03;;;;;;;;;;;19.20;53.90;;;;;;7395224;19;915;-61
2023/12/15 14:23:29;;;;;;;;;;;19.20;53.60;;;;;;7397153;19;3145;-62